createdAt,value
2022-11-27T00:00:51.090Z,18.70
2022-11-27T00:03:20.500Z,19.42
2022-11-27T00:05:54.189Z,18.20
2022-11-27T00:08:22.106Z,18.95
2022-11-27T00:10:50.101Z,17.85
2022-11-27T00:13:18.108Z,17.73
2022-11-27T00:15:46.370Z,17.02
2022-11-27T00:18:14.288Z,16.52
2022-11-27T00:20:43.541Z,16.38
2022-11-27T00:23:11.442Z,17.98
2022-11-27T00:25:39.349Z,17.88
2022-11-27T00:28:07.256Z,17.23
2022-11-27T00:30:35.145Z,17.58
2022-11-27T00:33:03.059Z,18.17
2022-11-27T00:35:30.960Z,17.08
2022-11-27T00:38:00.217Z,17.73
2022-11-27T00:40:28.153Z,19.20
2022-11-27T00:42:56.064Z,19.15
2022-11-27T00:45:24.068Z,17.05
2022-11-27T00:47:51.935Z,17.40
2022-11-27T00:50:20.266Z,16.10
2022-11-27T00:52:48.201Z,17.73
2022-11-27T00:55:17.618Z,17.77
2022-11-27T00:57:45.454Z,18.38
2022-11-27T01:00:14.711Z,18.38
2022-11-27T01:02:42.705Z,17.20
2022-11-27T01:05:10.974Z,17.38
2022-11-27T01:07:38.946Z,17.40
2022-11-27T01:10:08.420Z,14.90
2022-11-27T01:12:37.673Z,17.35
2022-11-27T01:15:06.508Z,17.70
2022-11-27T01:17:34.440Z,16.48
2022-11-27T01:20:02.309Z,15.27
2022-11-27T01:22:30.218Z,15.63
2022-11-27T01:24:58.139Z,14.40
2022-11-27T01:27:26.089Z,14.73
2022-11-27T01:29:55.361Z,14.68
2022-11-27T01:32:23.254Z,12.80
2022-11-27T01:34:51.192Z,13.70
2022-11-27T01:37:19.473Z,14.52
2022-11-27T01:39:47.372Z,14.98
2022-11-27T01:42:15.257Z,15.38
2022-11-27T01:44:53.326Z,14.50
2022-11-27T01:47:35.375Z,14.30
2022-11-27T01:50:10.479Z,14.90
2022-11-27T01:52:41.567Z,14.38
2022-11-27T01:55:18.901Z,13.40
2022-11-27T01:57:49.924Z,13.50
2022-11-27T02:00:20.191Z,15.20
2022-11-27T02:02:50.151Z,16.85
2022-11-27T02:05:20.424Z,13.68
2022-11-27T02:07:49.218Z,15.00
2022-11-27T02:10:17.877Z,14.18
2022-11-27T02:12:54.370Z,15.45
2022-11-27T02:15:30.424Z,12.85
2022-11-27T02:18:09.301Z,12.35
2022-11-27T02:20:45.816Z,13.07
2022-11-27T02:23:49.044Z,12.10
2022-11-27T02:26:39.286Z,12.27
2022-11-27T02:29:10.580Z,12.23
2022-11-27T02:31:44.240Z,12.63
2022-11-27T02:34:23.883Z,13.48
2022-11-27T02:37:01.073Z,13.27
2022-11-27T02:39:35.866Z,13.70
2022-11-27T02:42:12.825Z,12.00
2022-11-27T02:44:48.425Z,11.18
2022-11-27T02:47:16.591Z,11.40
2022-11-27T02:49:45.901Z,11.05
2022-11-27T02:52:17.981Z,10.65
2022-11-27T02:54:49.050Z,12.27
2022-11-27T02:57:18.533Z,10.45
2022-11-27T02:59:48.570Z,10.95
2022-11-27T03:02:20.233Z,11.98
2022-11-27T03:04:52.041Z,11.57
2022-11-27T03:07:35.149Z,10.68
2022-11-27T03:10:10.955Z,11.02
2022-11-27T03:12:38.922Z,10.75
2022-11-27T03:15:09.378Z,10.52
2022-11-27T03:17:51.557Z,11.43
2022-11-27T03:20:22.939Z,10.60
2022-11-27T03:22:50.913Z,10.88
2022-11-27T03:25:18.825Z,10.65
2022-11-27T03:27:51.132Z,10.90
2022-11-27T03:30:20.486Z,9.98
2022-11-27T03:32:48.747Z,9.75
2022-11-27T03:35:21.016Z,8.98
2022-11-27T03:37:49.472Z,8.98
2022-11-27T03:40:18.896Z,10.43
2022-11-27T03:42:57.329Z,8.48
2022-11-27T03:45:33.116Z,10.20
2022-11-27T03:48:15.652Z,10.57
2022-11-27T03:50:54.316Z,10.27
2022-11-27T03:53:28.203Z,8.73
2022-11-27T03:56:08.412Z,8.82
2022-11-27T03:58:41.627Z,10.20
2022-11-27T04:01:15.036Z,11.60
2022-11-27T04:03:42.983Z,11.20
2022-11-27T04:06:11.702Z,10.27
2022-11-27T04:08:40.103Z,11.52
2022-11-27T04:11:08.804Z,11.52
2022-11-27T04:13:37.115Z,12.02
2022-11-27T04:16:05.461Z,10.68
2022-11-27T04:18:34.783Z,12.65
2022-11-27T04:21:02.692Z,11.57
2022-11-27T04:23:30.545Z,14.05
2022-11-27T04:25:58.464Z,14.13
2022-11-27T04:28:26.326Z,12.15
2022-11-27T04:30:55.818Z,11.43
2022-11-27T04:33:24.385Z,11.05
2022-11-27T04:35:54.348Z,14.07
2022-11-27T04:38:22.990Z,13.35
2022-11-27T04:40:53.272Z,13.43
2022-11-27T04:43:21.380Z,13.10
2022-11-27T04:45:49.311Z,12.75
2022-11-27T04:48:17.217Z,12.82
2022-11-27T04:50:45.241Z,12.85
2022-11-27T04:53:14.472Z,12.40
2022-11-27T04:55:42.366Z,12.13
2022-11-27T04:58:10.275Z,12.40
2022-11-27T05:00:38.274Z,9.77
2022-11-27T05:03:06.276Z,8.75
2022-11-27T05:05:34.234Z,9.38
2022-11-27T05:08:02.252Z,12.77
2022-11-27T05:10:31.562Z,12.73
2022-11-27T05:12:59.485Z,11.90
2022-11-27T05:15:27.417Z,11.18
2022-11-27T05:17:55.316Z,10.57
2022-11-27T05:20:23.225Z,11.23
2022-11-27T05:22:51.162Z,12.27
2022-11-27T05:25:19.088Z,9.25
2022-11-27T05:27:48.883Z,9.18
2022-11-27T05:30:17.048Z,8.02
2022-11-27T05:32:44.961Z,9.02
2022-11-27T05:35:12.844Z,9.73
2022-11-27T05:37:40.737Z,10.32
2022-11-27T05:40:14.514Z,9.40
2022-11-27T05:42:42.409Z,11.70
2022-11-27T05:45:12.432Z,10.80
2022-11-27T05:47:40.340Z,13.30
2022-11-27T05:50:09.244Z,13.48
2022-11-27T05:52:37.257Z,13.60
2022-11-27T05:55:05.752Z,10.65
2022-11-27T05:57:33.688Z,12.23
2022-11-27T06:00:01.687Z,14.25
2022-11-27T06:02:31.537Z,14.52
2022-11-27T06:04:59.485Z,14.52
2022-11-27T06:07:27.430Z,16.50
2022-11-27T06:09:55.389Z,14.05
2022-11-27T06:12:23.245Z,14.32
2022-11-27T06:14:51.154Z,12.07
2022-11-27T06:17:19.085Z,13.98
2022-11-27T06:19:48.310Z,15.18
2022-11-27T06:22:16.238Z,13.30
2022-11-27T06:24:44.109Z,12.73
2022-11-27T06:27:12.047Z,12.95
2022-11-27T06:29:40.020Z,13.63
2022-11-27T06:32:08.051Z,13.73
2022-11-27T06:34:36.108Z,14.07
2022-11-27T06:37:10.410Z,14.60
2022-11-27T06:39:40.834Z,14.43
2022-11-27T06:42:08.751Z,13.38
2022-11-27T06:44:36.708Z,13.82
2022-11-27T06:47:04.595Z,14.90
2022-11-27T06:49:32.514Z,13.07
2022-11-27T06:52:00.461Z,11.95
2022-11-27T06:54:29.756Z,13.30
2022-11-27T06:56:58.424Z,13.27
2022-11-27T06:59:26.324Z,13.85
2022-11-27T07:01:54.376Z,14.45
2022-11-27T07:04:22.371Z,15.23
2022-11-27T07:06:50.567Z,15.57
2022-11-27T07:09:18.428Z,14.35
2022-11-27T07:11:47.713Z,15.60
2022-11-27T07:14:15.622Z,13.68
2022-11-27T07:16:43.596Z,14.30
2022-11-27T07:19:12.108Z,15.75
2022-11-27T07:21:40.458Z,16.00
2022-11-27T07:24:09.053Z,16.75
2022-11-27T07:26:36.938Z,12.35
2022-11-27T07:29:06.213Z,13.45
2022-11-27T07:31:34.425Z,14.75
2022-11-27T07:34:14.958Z,16.08
2022-11-27T07:36:48.368Z,15.55
2022-11-27T07:39:25.215Z,16.65
2022-11-27T07:42:16.772Z,17.35
2022-11-27T07:44:52.811Z,16.27
2022-11-27T07:47:20.896Z,15.73
2022-11-27T07:49:48.767Z,13.82
2022-11-27T07:52:16.675Z,15.00
2022-11-27T07:54:44.570Z,16.92
2022-11-27T07:57:12.639Z,14.07
2022-11-27T07:59:45.729Z,14.52
2022-11-27T08:02:16.873Z,12.23
2022-11-27T08:04:45.068Z,14.77
2022-11-27T08:07:13.236Z,14.02
2022-11-27T08:09:41.286Z,12.82
2022-11-27T08:12:09.204Z,13.90
2022-11-27T08:14:37.211Z,13.52
2022-11-27T08:17:05.136Z,13.07
2022-11-27T08:19:34.365Z,16.30
2022-11-27T08:22:02.304Z,15.20
2022-11-27T08:24:30.179Z,13.25
2022-11-27T08:26:58.093Z,14.25
2022-11-27T08:29:31.172Z,14.95
2022-11-27T08:32:01.905Z,15.20
2022-11-27T08:34:29.844Z,17.30
2022-11-27T08:36:59.134Z,16.70
2022-11-27T08:39:27.420Z,19.98
2022-11-27T08:41:55.510Z,19.48
2022-11-27T08:44:23.464Z,21.02
2022-11-27T08:46:51.373Z,23.75
2022-11-27T08:49:19.380Z,23.40
2022-11-27T08:51:47.271Z,21.60
2022-11-27T08:54:16.562Z,21.00
2022-11-27T08:56:44.569Z,21.83
2022-11-27T08:59:12.869Z,20.02
2022-11-27T09:01:40.870Z,18.60
2022-11-27T09:04:09.146Z,19.13
2022-11-27T09:06:37.217Z,19.65
2022-11-27T09:09:06.867Z,22.98
2022-11-27T09:11:37.218Z,23.42
2022-11-27T09:14:06.033Z,23.83
2022-11-27T09:16:34.116Z,18.67
2022-11-27T09:19:02.446Z,20.33
2022-11-27T09:21:31.491Z,23.30
2022-11-27T09:24:00.624Z,24.52
2022-11-27T09:26:30.236Z,24.83
2022-11-27T09:29:00.208Z,27.60
2022-11-27T09:31:28.297Z,27.80
2022-11-27T09:33:56.176Z,27.63
2022-11-27T09:36:26.503Z,26.50
2022-11-27T09:38:54.771Z,26.35
2022-11-27T09:41:40.018Z,26.73
2022-11-27T09:44:30.320Z,27.23
2022-11-27T09:47:01.068Z,26.00
2022-11-27T09:49:37.814Z,24.17
2022-11-27T09:52:11.033Z,25.23
2022-11-27T09:54:47.997Z,26.30
2022-11-27T09:57:30.319Z,26.35
2022-11-27T10:00:03.958Z,27.50
2022-11-27T10:02:34.380Z,24.73
2022-11-27T10:05:13.734Z,25.60
2022-11-27T10:08:06.743Z,24.65
2022-11-27T10:10:41.944Z,27.45
2022-11-27T10:13:23.394Z,28.23
2022-11-27T10:15:56.911Z,29.20
2022-11-27T10:18:33.768Z,29.23
2022-11-27T10:21:08.494Z,30.58
2022-11-27T10:23:47.885Z,26.80
2022-11-27T10:26:20.222Z,26.95
2022-11-27T10:28:56.385Z,27.40
2022-11-27T10:31:34.075Z,27.35
2022-11-27T10:34:05.540Z,25.40
2022-11-27T10:36:40.128Z,29.05
2022-11-27T10:39:14.994Z,28.17
2022-11-27T10:41:50.007Z,25.30
2022-11-27T10:44:28.038Z,26.15
2022-11-27T10:47:02.409Z,28.40
2022-11-27T10:49:30.440Z,27.55
2022-11-27T10:51:58.618Z,26.55
2022-11-27T10:54:29.546Z,26.85
2022-11-27T10:57:09.163Z,27.55
2022-11-27T10:59:43.741Z,27.45
2022-11-27T11:06:11.624Z,27.73
2022-11-27T11:08:18.680Z,28.27
2022-11-27T11:10:53.173Z,25.85
2022-11-27T11:13:22.965Z,26.33
2022-11-27T11:15:53.922Z,25.05
2022-11-27T11:18:23.772Z,26.00
2022-11-27T11:20:55.644Z,29.05
2022-11-27T11:23:30.838Z,29.77
2022-11-27T11:26:02.811Z,27.20
2022-11-27T11:28:36.517Z,27.33
2022-11-27T11:31:10.525Z,29.90
2022-11-27T11:33:49.380Z,28.38
2022-11-27T11:36:18.737Z,27.02
2022-11-27T11:38:48.379Z,29.85
2022-11-27T11:41:18.170Z,25.92
2022-11-27T11:43:59.215Z,25.67
2022-11-27T11:46:29.985Z,25.90
2022-11-27T11:49:00.526Z,26.55
2022-11-27T11:51:45.768Z,23.13
2022-11-27T11:54:25.274Z,24.83
2022-11-27T11:56:53.994Z,26.13
2022-11-27T11:59:28.726Z,25.98
2022-11-27T12:02:20.890Z,27.27
2022-11-27T12:05:21.538Z,29.17
2022-11-27T12:08:08.007Z,26.60
2022-11-27T12:10:47.027Z,29.08
2022-11-27T12:13:29.042Z,28.27
2022-11-27T12:16:07.638Z,27.88
2022-11-27T12:18:46.554Z,31.88
2022-11-27T12:21:16.239Z,31.52
2022-11-27T12:24:04.473Z,30.92
2022-11-27T12:26:44.318Z,31.23
2022-11-27T12:29:34.509Z,30.15
2022-11-27T12:32:20.061Z,30.30
2022-11-27T12:35:04.330Z,29.80
2022-11-27T12:37:50.077Z,30.65
2022-11-27T12:40:36.554Z,31.77
2022-11-27T12:43:15.893Z,32.47
2022-11-27T12:45:48.937Z,28.15
2022-11-27T12:48:22.479Z,28.73
2022-11-27T12:50:54.848Z,30.67
2022-11-27T12:56:04.254Z,29.23
2022-11-27T12:58:34.881Z,30.17
2022-11-27T13:01:07.150Z,29.40
2022-11-27T13:03:43.185Z,27.88
2022-11-27T13:06:13.287Z,29.85
2022-11-27T13:08:52.284Z,29.88
2022-11-27T13:11:27.442Z,30.40
2022-11-27T13:13:59.593Z,29.85
2022-11-27T13:16:33.074Z,29.45
2022-11-27T13:19:07.346Z,30.80
2022-11-27T13:21:37.096Z,29.95
2022-11-27T13:24:06.017Z,30.08
2022-11-27T13:26:40.021Z,27.60
2022-11-27T13:29:17.036Z,28.05
2022-11-27T13:31:46.225Z,27.40
2022-11-27T13:34:21.345Z,25.48
2022-11-27T13:36:58.248Z,27.08
2022-11-27T13:39:29.373Z,25.67
2022-11-27T13:42:08.274Z,26.25
2022-11-27T13:44:40.781Z,26.55
2022-11-27T13:47:14.525Z,25.95
2022-11-27T13:49:43.490Z,25.10
2022-11-27T13:52:13.883Z,24.92
2022-11-27T13:54:53.569Z,26.13
2022-11-27T13:57:24.317Z,26.23
2022-11-27T14:00:00.513Z,29.10
2022-11-27T14:02:41.515Z,25.05
2022-11-27T14:05:10.503Z,27.65
2022-11-27T14:07:42.377Z,27.70
2022-11-27T14:10:14.535Z,26.35
2022-11-27T14:12:54.529Z,29.40
2022-11-27T14:15:25.539Z,27.20
2022-11-27T14:18:05.095Z,26.40
2022-11-27T14:20:36.290Z,27.13
2022-11-27T14:23:13.222Z,27.83
2022-11-27T14:25:42.025Z,29.00
2022-11-27T14:28:16.483Z,25.73
2022-11-27T14:30:48.363Z,24.38
2022-11-27T14:33:21.682Z,21.52
2022-11-27T14:35:50.956Z,23.20
2022-11-27T14:38:18.906Z,26.50
2022-11-27T14:40:47.368Z,26.90
2022-11-27T14:43:23.762Z,27.58
2022-11-27T14:45:54.023Z,29.27
2022-11-27T14:48:23.946Z,29.92
2022-11-27T14:50:53.127Z,28.20
2022-11-27T14:53:23.651Z,31.02
2022-11-27T14:55:56.022Z,31.35
2022-11-27T15:00:57.807Z,29.83
2022-11-27T15:03:26.819Z,28.80
2022-11-27T15:05:58.466Z,31.13
2022-11-27T15:08:27.183Z,31.05
2022-11-27T15:10:57.405Z,28.67
2022-11-27T15:13:29.282Z,30.25
2022-11-27T15:16:01.809Z,31.85
2022-11-27T15:18:32.225Z,35.92
2022-11-27T15:21:00.700Z,34.28
2022-11-27T15:23:30.422Z,37.78
2022-11-27T15:26:15.881Z,35.42
2022-11-27T15:28:53.068Z,38.10
2022-11-27T15:31:32.736Z,37.63
2022-11-27T15:34:04.040Z,36.50
2022-11-27T15:36:42.913Z,35.55
2022-11-27T15:39:21.161Z,34.35
2022-11-27T15:41:57.023Z,32.58
2022-11-27T15:44:27.724Z,31.13
2022-11-27T15:46:57.339Z,29.35
2022-11-27T15:49:25.537Z,25.85
2022-11-27T15:51:53.587Z,30.00
2022-11-27T15:54:21.547Z,29.23
2022-11-27T15:56:49.992Z,29.13
2022-11-27T15:59:20.577Z,31.15
2022-11-27T16:01:50.378Z,28.60
2022-11-27T16:04:18.432Z,26.95
2022-11-27T16:06:46.333Z,28.83
2022-11-27T16:09:14.401Z,27.70
2022-11-27T16:11:42.488Z,28.23
2022-11-27T16:14:10.498Z,27.55
2022-11-27T16:16:38.713Z,26.98
2022-11-27T16:19:08.216Z,26.80
2022-11-27T16:21:36.600Z,27.13
2022-11-27T16:24:07.579Z,23.55
2022-11-27T16:26:36.911Z,25.10
2022-11-27T16:29:04.956Z,25.90
2022-11-27T16:31:33.173Z,25.90
2022-11-27T16:34:02.018Z,23.25
2022-11-27T16:36:31.290Z,21.85
2022-11-27T16:38:59.608Z,20.15
2022-11-27T16:41:27.884Z,19.65
2022-11-27T16:43:57.747Z,20.77
2022-11-27T16:46:27.668Z,20.02
2022-11-27T16:48:56.925Z,18.63
2022-11-27T16:51:26.331Z,21.83
2022-11-27T16:53:57.601Z,23.30
2022-11-27T16:56:28.142Z,24.75
2022-11-27T16:59:02.261Z,25.02
2022-11-27T17:01:34.326Z,27.48
2022-11-27T17:04:03.633Z,27.33
2022-11-27T17:06:33.158Z,27.65
2022-11-27T17:09:04.695Z,29.85
2022-11-27T17:11:34.459Z,31.03
2022-11-27T17:14:05.141Z,27.08
2022-11-27T17:16:33.308Z,27.77
2022-11-27T17:19:01.550Z,25.52
2022-11-27T17:21:32.035Z,26.27
2022-11-27T17:24:03.169Z,26.98
2022-11-27T17:26:32.483Z,27.40
2022-11-27T17:29:02.144Z,29.08
2022-11-27T17:31:32.787Z,29.73
2022-11-27T17:34:00.931Z,28.73
2022-11-27T17:36:36.602Z,29.75
2022-11-27T17:39:07.436Z,32.85
2022-11-27T17:41:35.944Z,34.42
2022-11-27T17:44:05.330Z,33.40
2022-11-27T17:46:34.357Z,30.70
2022-11-27T17:49:03.421Z,30.05
2022-11-27T17:51:33.013Z,32.22
2022-11-27T17:54:02.519Z,32.72
2022-11-27T17:56:32.136Z,33.65
2022-11-27T17:59:00.804Z,30.85
2022-11-27T18:01:30.068Z,34.60
2022-11-27T18:04:00.300Z,31.13
2022-11-27T18:06:28.406Z,31.23
2022-11-27T18:08:57.452Z,32.97
2022-11-27T18:11:28.002Z,32.90
2022-11-27T18:13:57.490Z,33.58
2022-11-27T18:16:29.163Z,34.92
2022-11-27T18:18:57.774Z,35.63
2022-11-27T18:21:27.182Z,35.75
2022-11-27T18:29:33.533Z,36.40
2022-11-27T18:32:01.474Z,34.63
2022-11-27T18:34:29.430Z,36.10
2022-11-27T18:37:00.851Z,36.83
2022-11-27T18:39:29.369Z,37.40
2022-11-27T18:41:57.291Z,37.72
2022-11-27T18:44:25.303Z,38.92
2022-11-27T18:46:54.833Z,38.58
2022-11-27T18:49:23.195Z,38.78
2022-11-27T18:51:51.727Z,38.83
2022-11-27T18:54:19.857Z,39.10
2022-11-27T18:56:47.861Z,39.95
2022-11-27T18:59:15.776Z,39.40
2022-11-27T19:01:43.812Z,38.05
2022-11-27T19:04:15.029Z,36.92
2022-11-27T19:06:43.435Z,38.22
2022-11-27T19:09:12.093Z,38.78
2022-11-27T19:11:42.994Z,39.10
2022-11-27T19:14:11.162Z,42.63
2022-11-27T19:16:43.901Z,41.05
2022-11-27T19:19:52.783Z,41.03
2022-11-27T19:22:03.279Z,44.47
2022-11-27T19:24:31.189Z,44.20
2022-11-27T19:26:59.140Z,43.45
2022-11-27T19:29:27.094Z,43.30
2022-11-27T19:31:58.147Z,43.10
2022-11-27T19:34:27.585Z,45.10
2022-11-27T19:36:56.323Z,45.00
2022-11-27T19:39:24.269Z,45.45
2022-11-27T19:41:52.305Z,46.03
2022-11-27T19:44:20.504Z,47.38
2022-11-27T19:46:48.416Z,46.88
2022-11-27T19:49:18.247Z,45.42
2022-11-27T19:51:48.244Z,46.17
2022-11-27T19:54:19.145Z,41.67
2022-11-27T19:56:47.113Z,41.67
2022-11-27T19:59:15.536Z,43.03
2022-11-27T20:01:43.791Z,45.63
2022-11-27T20:04:12.550Z,44.03
2022-11-27T20:06:41.156Z,45.40
2022-11-27T20:09:13.900Z,45.30
2022-11-27T20:11:41.862Z,46.45
2022-11-27T20:14:09.790Z,47.38
2022-11-27T20:16:38.161Z,45.30
2022-11-27T20:19:07.282Z,44.72
2022-11-27T20:21:35.527Z,46.55
2022-11-27T20:24:03.611Z,48.45
2022-11-27T20:26:36.172Z,49.78
2022-11-27T20:29:07.720Z,47.10
2022-11-27T20:31:38.397Z,45.33
2022-11-27T20:34:07.854Z,45.55
2022-11-27T20:36:39.588Z,46.63
2022-11-27T20:39:08.092Z,46.45
2022-11-27T20:41:37.691Z,44.42
2022-11-27T20:44:08.231Z,44.65
2022-11-27T20:46:36.194Z,43.85
2022-11-27T20:49:04.651Z,42.92
2022-11-27T20:51:34.397Z,44.67
2022-11-27T20:54:03.578Z,44.30
2022-11-27T20:56:32.349Z,46.22
2022-11-27T20:59:01.632Z,47.05
2022-11-27T21:01:31.937Z,47.50
2022-11-27T21:04:03.095Z,50.95
2022-11-27T21:06:33.292Z,49.35
2022-11-27T21:09:01.847Z,50.95
2022-11-27T21:11:31.493Z,52.17
2022-11-27T21:14:02.987Z,52.63
2022-11-27T21:16:34.235Z,53.97
2022-11-27T21:19:04.144Z,53.63
2022-11-27T21:21:32.354Z,53.28
2022-11-27T21:24:00.761Z,54.97
2022-11-27T21:26:29.166Z,57.45
2022-11-27T21:28:57.306Z,57.60
2022-11-27T21:31:27.816Z,52.45
2022-11-27T21:33:57.628Z,55.45
2022-11-27T21:36:28.529Z,55.08
2022-11-27T21:38:57.957Z,56.88
2022-11-27T21:41:26.540Z,56.25
2022-11-27T21:43:56.810Z,55.80
2022-11-27T21:46:26.971Z,56.75
2022-11-27T21:48:58.788Z,56.75
2022-11-27T21:51:27.851Z,61.33
2022-11-27T21:53:57.083Z,58.15
2022-11-27T21:56:27.669Z,57.15
2022-11-27T21:58:55.918Z,57.45
2022-11-27T22:01:27.218Z,59.15
2022-11-27T22:03:56.522Z,59.67
2022-11-27T22:06:26.978Z,60.70
2022-11-27T22:08:58.471Z,61.47
2022-11-27T22:11:30.267Z,63.13
2022-11-27T22:13:59.961Z,65.60
2022-11-27T22:16:31.377Z,65.28
2022-11-27T22:19:00.682Z,68.10
2022-11-27T22:21:29.893Z,67.28
2022-11-27T22:23:58.890Z,69.95
2022-11-27T22:26:27.073Z,67.80
2022-11-27T22:28:57.000Z,66.57
2022-11-27T22:31:27.280Z,68.40
2022-11-27T22:33:56.899Z,68.80
2022-11-27T22:36:26.807Z,67.20
2022-11-27T22:38:56.021Z,66.22
2022-11-27T22:41:26.558Z,70.82
2022-11-27T22:43:54.445Z,71.97
2022-11-27T22:46:25.284Z,70.47
2022-11-27T22:48:55.188Z,73.32
2022-11-27T22:51:24.959Z,77.72
2022-11-27T22:53:52.989Z,73.65
2022-11-27T22:56:20.956Z,75.45
2022-11-27T22:58:49.201Z,77.85
2022-11-27T23:01:19.122Z,77.65
2022-11-27T23:03:47.431Z,78.30
2022-11-27T23:06:16.773Z,80.03
2022-11-27T23:08:47.191Z,81.38
2022-11-27T23:11:16.976Z,81.15
2022-11-27T23:13:49.485Z,84.20
2022-11-27T23:16:18.779Z,86.47
2022-11-27T23:18:46.817Z,86.22
2022-11-27T23:21:16.952Z,87.35
2022-11-27T23:23:46.782Z,86.93
2022-11-27T23:26:18.446Z,87.95
2022-11-27T23:28:47.673Z,89.65
2022-11-27T23:31:33.057Z,87.60
2022-11-27T23:34:02.586Z,90.32
2022-11-27T23:36:31.437Z,90.35
2022-11-27T23:39:03.131Z,90.00
2022-11-27T23:41:32.110Z,88.60
2022-11-27T23:44:01.585Z,89.75
2022-11-27T23:46:30.699Z,92.57
2022-11-27T23:49:00.495Z,90.40
2022-11-27T23:51:30.141Z,87.65
2022-11-27T23:53:58.580Z,91.95
2022-11-27T23:56:29.868Z,93.05
2022-11-27T23:58:58.303Z,92.32
